Forside
METAR-TAF:

METAR-TAF

Lufthavne :

Kbely

Prag, Tjekkiet

Breddekreds: 50-07-17N, længdekreds: 14-32-37E, højde: 286 m

Aktuelle vejr

Denne rapport blev lavet for 57 minutter siden, kl. 23:00 UTC
Vind 5 kt fra sydsydvest
Temperatur 13°C
Fugtighed 58%
Tryk 1028 hPa
Sigt 10 km eller mere
ingen skyer under 1500m og ingen cumulonimbus

METAR: LKKB 122300Z 21005KT CAVOK 13/05 Q1028

Tid: 01:57 (23:57 UTC)

Vejrudsigter

Denne rapport blev lavet for 6 timer og 57 minutter siden, kl. 17:00 UTC
Foreløbig gælder fra 12 på 18 UTC til 13 på 18 UTC
Vind 8 kt fra sydvest
Sigt 10 km eller mere
ingen skyer under 1500m og ingen cumulonimbus
ændring
fra 13 på 08 UTC til 13 på 10 UTC
Vind 12 kt fra vest
Midlertidig
fra 13 på 10 UTC til 13 på 14 UTC
Spredte skyer i en højde af 4000 ft

TAF: LKKB 121700Z 1218/1318 22008KT CAVOK BECMG 1308/1310 26012KT TEMPO 1310/1314 SCT040

Vejrobservationer og prognoser fra mere end 4000 lufthavne (METAR og TAF).

De gule og røde prikker repræsenterer de meteorologiske stationer.

Flyt musen over at se navnet på stationen.

Så klik over at se vejr observationer og prognoser.

At skifte det kort: Klik på de grønne knapper med et sort kors for at zoome ind; på den grønne knap med en bindestreg for at zoome ud; eller på de grønne pile for tilstødende kort.


METAR-TAF: